sensor_id;sensor_type;location;lat;lon;timestamp;temperature;humidity
10662;DHT22;5379;51.034;7.006;2023-08-12T04:32:56;24.90;99.90
10662;DHT22;5379;51.034;7.006;2023-08-12T04:35:23;24.80;99.90
10662;DHT22;5379;51.034;7.006;2023-08-12T04:37:50;24.70;99.90
10662;DHT22;5379;51.034;7.006;2023-08-12T04:40:17;24.70;99.90
10662;DHT22;5379;51.034;7.006;2023-08-12T04:42:44;24.70;99.90
10662;DHT22;5379;51.034;7.006;2023-08-12T04:45:11;24.70;99.90
10662;DHT22;5379;51.034;7.006;2023-08-12T04:47:39;24.70;99.90
10662;DHT22;5379;51.034;7.006;2023-08-12T04:50:07;24.60;99.90
10662;DHT22;5379;51.034;7.006;2023-08-12T04:52:34;24.60;99.90
10662;DHT22;5379;51.034;7.006;2023-08-12T04:55:01;24.80;99.90
10662;DHT22;5379;51.034;7.006;2023-08-12T04:57:28;24.60;99.90
10662;DHT22;5379;51.034;7.006;2023-08-12T04:59:56;24.40;99.90
10662;DHT22;5379;51.034;7.006;2023-08-12T05:02:23;24.30;99.90
10662;DHT22;5379;51.034;7.006;2023-08-12T05:04:51;24.20;99.90
10662;DHT22;5379;51.034;7.006;2023-08-12T05:07:18;24.10;99.90
10662;DHT22;5379;51.034;7.006;2023-08-12T05:09:45;24.10;99.90
10662;DHT22;5379;51.034;7.006;2023-08-12T05:12:12;24.10;99.90
10662;DHT22;5379;51.034;7.006;2023-08-12T05:14:40;24.20;99.90
10662;DHT22;5379;51.034;7.006;2023-08-12T05:17:07;24.20;99.90
10662;DHT22;5379;51.034;7.006;2023-08-12T05:19:34;24.40;99.90
10662;DHT22;5379;51.034;7.006;2023-08-12T05:22:02;24.40;99.90
10662;DHT22;5379;51.034;7.006;2023-08-12T05:24:29;24.40;99.90
10662;DHT22;5379;51.034;7.006;2023-08-12T05:26:56;24.50;99.90
10662;DHT22;5379;51.034;7.006;2023-08-12T05:29:24;24.40;99.90
10662;DHT22;5379;51.034;7.006;2023-08-12T05:31:51;24.60;99.90
10662;DHT22;5379;51.034;7.006;2023-08-12T05:34:18;24.60;99.90
10662;DHT22;5379;51.034;7.006;2023-08-12T05:36:45;24.70;99.90
10662;DHT22;5379;51.034;7.006;2023-08-12T05:39:13;24.70;99.90
10662;DHT22;5379;51.034;7.006;2023-08-12T05:41:41;24.90;99.90
10662;DHT22;5379;51.034;7.006;2023-08-12T05:44:08;24.80;99.90
10662;DHT22;5379;51.034;7.006;2023-08-12T05:46:35;24.80;99.90
10662;DHT22;5379;51.034;7.006;2023-08-12T05:49:02;24.80;99.90
10662;DHT22;5379;51.034;7.006;2023-08-12T05:51:29;24.70;99.90
10662;DHT22;5379;51.034;7.006;2023-08-12T05:53:56;24.60;99.90
10662;DHT22;5379;51.034;7.006;2023-08-12T05:56:24;24.70;99.90
10662;DHT22;5379;51.034;7.006;2023-08-12T05:58:51;24.90;99.90
10662;DHT22;5379;51.034;7.006;2023-08-12T06:01:18;24.80;99.90
10662;DHT22;5379;51.034;7.006;2023-08-12T06:03:46;24.80;99.90
10662;DHT22;5379;51.034;7.006;2023-08-12T06:06:12;24.80;99.90
10662;DHT22;5379;51.034;7.006;2023-08-12T06:08:39;24.80;99.90
10662;DHT22;5379;51.034;7.006;2023-08-12T06:11:07;24.80;99.90
10662;DHT22;5379;51.034;7.006;2023-08-12T06:13:35;24.70;99.90
10662;DHT22;5379;51.034;7.006;2023-08-12T06:16:02;24.80;99.90
10662;DHT22;5379;51.034;7.006;2023-08-12T06:18:30;25.00;99.90
10662;DHT22;5379;51.034;7.006;2023-08-12T06:20:57;25.00;99.90
10662;DHT22;5379;51.034;7.006;2023-08-12T06:23:24;25.10;99.90
10662;DHT22;5379;51.034;7.006;2023-08-12T06:25:51;25.20;99.90
10662;DHT22;5379;51.034;7.006;2023-08-12T06:28:18;25.30;99.90
10662;DHT22;5379;51.034;7.006;2023-08-12T06:30:46;25.50;99.90
10662;DHT22;5379;51.034;7.006;2023-08-12T06:33:14;25.50;99.90
10662;DHT22;5379;51.034;7.006;2023-08-12T06:35:41;25.40;99.90
10662;DHT22;5379;51.034;7.006;2023-08-12T06:38:09;25.00;99.90
10662;DHT22;5379;51.034;7.006;2023-08-12T06:40:37;24.90;99.90
10662;DHT22;5379;51.034;7.006;2023-08-12T06:43:04;24.90;99.90
10662;DHT22;5379;51.034;7.006;2023-08-12T06:45:32;24.80;99.90
10662;DHT22;5379;51.034;7.006;2023-08-12T06:48:01;24.90;99.90
10662;DHT22;5379;51.034;7.006;2023-08-12T06:52:57;24.80;99.90
10662;DHT22;5379;51.034;7.006;2023-08-12T06:55:24;24.90;99.90
10662;DHT22;5379;51.034;7.006;2023-08-12T06:57:51;24.90;99.90
10662;DHT22;5379;51.034;7.006;2023-08-12T07:00:18;24.80;99.90
10662;DHT22;5379;51.034;7.006;2023-08-12T07:02:45;25.00;99.90
10662;DHT22;5379;51.034;7.006;2023-08-12T07:05:14;25.00;99.90
10662;DHT22;5379;51.034;7.006;2023-08-12T07:07:41;24.80;99.90
10662;DHT22;5379;51.034;7.006;2023-08-12T07:10:08;25.20;99.90
10662;DHT22;5379;51.034;7.006;2023-08-12T07:12:35;25.20;99.90
10662;DHT22;5379;51.034;7.006;2023-08-12T07:15:02;25.50;99.90
10662;DHT22;5379;51.034;7.006;2023-08-12T07:17:29;25.70;99.90
10662;DHT22;5379;51.034;7.006;2023-08-12T07:19:56;25.50;99.90
10662;DHT22;5379;51.034;7.006;2023-08-12T07:22:25;25.60;99.90
10662;DHT22;5379;51.034;7.006;2023-08-12T07:24:52;25.50;99.90
10662;DHT22;5379;51.034;7.006;2023-08-12T07:27:19;25.40;99.90
10662;DHT22;5379;51.034;7.006;2023-08-12T07:29:46;25.50;99.90
10662;DHT22;5379;51.034;7.006;2023-08-12T07:32:13;25.30;99.90
10662;DHT22;5379;51.034;7.006;2023-08-12T07:34:40;25.50;99.90
10662;DHT22;5379;51.034;7.006;2023-08-12T07:37:07;25.50;99.90
10662;DHT22;5379;51.034;7.006;2023-08-12T07:39:36;25.50;99.90
10662;DHT22;5379;51.034;7.006;2023-08-12T07:42:03;25.60;99.90
10662;DHT22;5379;51.034;7.006;2023-08-12T07:44:30;25.70;99.90
10662;DHT22;5379;51.034;7.006;2023-08-12T07:46:57;25.80;99.90
10662;DHT22;5379;51.034;7.006;2023-08-12T07:49:24;25.60;99.90
10662;DHT22;5379;51.034;7.006;2023-08-12T07:51:51;25.60;99.90
10662;DHT22;5379;51.034;7.006;2023-08-12T07:54:18;25.70;99.90
10662;DHT22;5379;51.034;7.006;2023-08-12T07:56:46;25.50;99.90
10662;DHT22;5379;51.034;7.006;2023-08-12T07:59:13;25.50;99.90
10662;DHT22;5379;51.034;7.006;2023-08-12T08:01:41;25.70;99.90
10662;DHT22;5379;51.034;7.006;2023-08-12T08:04:08;25.60;99.90
10662;DHT22;5379;51.034;7.006;2023-08-12T08:06:35;25.70;99.90
10662;DHT22;5379;51.034;7.006;2023-08-12T08:09:02;25.60;99.90
10662;DHT22;5379;51.034;7.006;2023-08-12T08:11:30;25.70;99.90
10662;DHT22;5379;51.034;7.006;2023-08-12T08:13:59;25.80;99.90
10662;DHT22;5379;51.034;7.006;2023-08-12T08:16:26;25.80;99.90
10662;DHT22;5379;51.034;7.006;2023-08-12T08:18:53;25.80;99.90
10662;DHT22;5379;51.034;7.006;2023-08-12T08:21:20;25.80;99.90
10662;DHT22;5379;51.034;7.006;2023-08-12T08:23:47;25.80;99.90
10662;DHT22;5379;51.034;7.006;2023-08-12T08:26:14;25.70;99.90
10662;DHT22;5379;51.034;7.006;2023-08-12T08:28:41;25.90;99.90
10662;DHT22;5379;51.034;7.006;2023-08-12T08:31:10;25.90;99.90
10662;DHT22;5379;51.034;7.006;2023-08-12T08:33:37;26.00;99.90
10662;DHT22;5379;51.034;7.006;2023-08-12T08:36:04;26.30;99.90
10662;DHT22;5379;51.034;7.006;2023-08-12T08:38:31;26.40;99.90
10662;DHT22;5379;51.034;7.006;2023-08-12T08:40:58;26.30;99.90
10662;DHT22;5379;51.034;7.006;2023-08-12T08:43:26;26.40;99.90
10662;DHT22;5379;51.034;7.006;2023-08-12T08:45:53;26.40;99.90
10662;DHT22;5379;51.034;7.006;2023-08-12T08:48:22;26.30;99.90
10662;DHT22;5379;51.034;7.006;2023-08-12T08:50:50;26.40;99.90
10662;DHT22;5379;51.034;7.006;2023-08-12T08:53:18;26.40;99.90
10662;DHT22;5379;51.034;7.006;2023-08-12T08:55:47;26.60;99.90
10662;DHT22;5379;51.034;7.006;2023-08-12T08:58:14;26.70;99.90
10662;DHT22;5379;51.034;7.006;2023-08-12T09:00:42;27.10;99.90
10662;DHT22;5379;51.034;7.006;2023-08-12T09:03:10;27.00;99.90
10662;DHT22;5379;51.034;7.006;2023-08-12T09:05:39;27.00;99.90
10662;DHT22;5379;51.034;7.006;2023-08-12T09:08:08;27.10;99.90
10662;DHT22;5379;51.034;7.006;2023-08-12T09:10:37;27.10;99.90
10662;DHT22;5379;51.034;7.006;2023-08-12T09:13:06;27.10;99.90
10662;DHT22;5379;51.034;7.006;2023-08-12T09:15:34;27.00;99.90
10662;DHT22;5379;51.034;7.006;2023-08-12T09:18:01;27.00;99.90
10662;DHT22;5379;51.034;7.006;2023-08-12T09:20:31;26.90;99.90
10662;DHT22;5379;51.034;7.006;2023-08-12T09:23:00;26.80;99.90
10662;DHT22;5379;51.034;7.006;2023-08-12T09:25:28;26.90;99.90
10662;DHT22;5379;51.034;7.006;2023-08-12T09:27:58;27.00;99.90
10662;DHT22;5379;51.034;7.006;2023-08-12T09:30:28;26.50;99.90
10662;DHT22;5379;51.034;7.006;2023-08-12T09:33:00;26.50;99.90
10662;DHT22;5379;51.034;7.006;2023-08-12T09:35:33;26.50;99.90
10662;DHT22;5379;51.034;7.006;2023-08-12T09:38:03;26.70;99.90
10662;DHT22;5379;51.034;7.006;2023-08-12T09:40:31;26.80;99.90
10662;DHT22;5379;51.034;7.006;2023-08-12T09:42:58;26.70;99.90
10662;DHT22;5379;51.034;7.006;2023-08-12T09:45:26;26.90;99.90
10662;DHT22;5379;51.034;7.006;2023-08-12T09:47:54;27.00;99.90
10662;DHT22;5379;51.034;7.006;2023-08-12T09:52:54;27.20;99.90
10662;DHT22;5379;51.034;7.006;2023-08-12T09:55:24;27.10;99.90
10662;DHT22;5379;51.034;7.006;2023-08-12T09:57:52;27.10;99.90
10662;DHT22;5379;51.034;7.006;2023-08-12T10:00:20;26.90;99.90
10662;DHT22;5379;51.034;7.006;2023-08-12T10:02:49;26.10;99.90
10662;DHT22;5379;51.034;7.006;2023-08-12T10:05:20;26.30;99.90
10662;DHT22;5379;51.034;7.006;2023-08-12T10:07:48;26.50;99.90
10662;DHT22;5379;51.034;7.006;2023-08-12T10:10:15;26.60;99.90
10662;DHT22;5379;51.034;7.006;2023-08-12T10:12:44;26.70;99.90
10662;DHT22;5379;51.034;7.006;2023-08-12T10:15:12;26.60;99.90
10662;DHT22;5379;51.034;7.006;2023-08-12T10:17:41;26.80;99.90
10662;DHT22;5379;51.034;7.006;2023-08-12T10:20:12;27.10;99.90
10662;DHT22;5379;51.034;7.006;2023-08-12T10:22:40;27.20;99.90
10662;DHT22;5379;51.034;7.006;2023-08-12T10:25:08;27.30;99.90
10662;DHT22;5379;51.034;7.006;2023-08-12T10:27:36;27.40;99.90
10662;DHT22;5379;51.034;7.006;2023-08-12T10:30:06;27.40;99.90
10662;DHT22;5379;51.034;7.006;2023-08-12T10:32:33;27.50;99.90
10662;DHT22;5379;51.034;7.006;2023-08-12T10:35:01;27.40;99.90
10662;DHT22;5379;51.034;7.006;2023-08-12T10:37:32;27.40;99.90
10662;DHT22;5379;51.034;7.006;2023-08-12T10:40:03;27.40;99.90
10662;DHT22;5379;51.034;7.006;2023-08-12T10:42:42;27.20;99.90
10662;DHT22;5379;51.034;7.006;2023-08-12T10:45:12;27.20;99.90
10662;DHT22;5379;51.034;7.006;2023-08-12T10:47:41;26.90;99.90
10662;DHT22;5379;51.034;7.006;2023-08-12T10:50:18;26.90;99.90
10662;DHT22;5379;51.034;7.006;2023-08-12T10:52:46;27.00;99.90
10662;DHT22;5379;51.034;7.006;2023-08-12T10:55:17;27.10;99.90
10662;DHT22;5379;51.034;7.006;2023-08-12T10:57:44;27.20;99.90
10662;DHT22;5379;51.034;7.006;2023-08-12T11:00:15;27.20;99.90
10662;DHT22;5379;51.034;7.006;2023-08-12T11:02:46;27.30;99.90
10662;DHT22;5379;51.034;7.006;2023-08-12T11:05:15;27.40;99.90
10662;DHT22;5379;51.034;7.006;2023-08-12T11:07:45;27.40;99.90
10662;DHT22;5379;51.034;7.006;2023-08-12T11:10:14;27.40;99.90
10662;DHT22;5379;51.034;7.006;2023-08-12T11:12:49;27.40;99.90
10662;DHT22;5379;51.034;7.006;2023-08-12T11:15:29;27.40;99.90
10662;DHT22;5379;51.034;7.006;2023-08-12T11:17:58;27.50;99.90
10662;DHT22;5379;51.034;7.006;2023-08-12T11:20:27;27.50;99.90
10662;DHT22;5379;51.034;7.006;2023-08-12T11:22:55;27.40;99.90
10662;DHT22;5379;51.034;7.006;2023-08-12T11:25:24;27.40;99.90
10662;DHT22;5379;51.034;7.006;2023-08-12T11:27:51;27.40;99.90
10662;DHT22;5379;51.034;7.006;2023-08-12T11:30:20;27.40;99.90
10662;DHT22;5379;51.034;7.006;2023-08-12T11:32:50;27.50;99.90
10662;DHT22;5379;51.034;7.006;2023-08-12T11:35:18;27.50;99.90
10662;DHT22;5379;51.034;7.006;2023-08-12T11:37:48;27.50;99.90
10662;DHT22;5379;51.034;7.006;2023-08-12T11:40:16;27.60;99.90
10662;DHT22;5379;51.034;7.006;2023-08-12T11:42:45;27.50;99.90
10662;DHT22;5379;51.034;7.006;2023-08-12T11:45:13;27.50;99.90
10662;DHT22;5379;51.034;7.006;2023-08-12T11:47:40;27.40;99.90
10662;DHT22;5379;51.034;7.006;2023-08-12T11:50:11;27.40;99.90
10662;DHT22;5379;51.034;7.006;2023-08-12T11:52:39;27.30;99.90
10662;DHT22;5379;51.034;7.006;2023-08-12T11:55:10;27.30;99.90
10662;DHT22;5379;51.034;7.006;2023-08-12T11:57:39;27.00;99.90
10662;DHT22;5379;51.034;7.006;2023-08-12T12:00:08;26.30;99.90
10662;DHT22;5379;51.034;7.006;2023-08-12T12:02:39;25.60;99.90
10662;DHT22;5379;51.034;7.006;2023-08-12T12:05:10;25.50;99.90
10662;DHT22;5379;51.034;7.006;2023-08-12T12:07:37;25.30;99.90
10662;DHT22;5379;51.034;7.006;2023-08-12T12:10:06;25.10;99.90
10662;DHT22;5379;51.034;7.006;2023-08-12T12:12:33;24.90;99.90
10662;DHT22;5379;51.034;7.006;2023-08-12T12:15:01;24.90;99.90
10662;DHT22;5379;51.034;7.006;2023-08-12T12:17:28;24.80;99.90
10662;DHT22;5379;51.034;7.006;2023-08-12T12:19:57;25.00;99.90
10662;DHT22;5379;51.034;7.006;2023-08-12T12:22:29;25.10;99.90
10662;DHT22;5379;51.034;7.006;2023-08-12T12:24:58;25.60;99.90
10662;DHT22;5379;51.034;7.006;2023-08-12T12:27:26;25.30;99.90
10662;DHT22;5379;51.034;7.006;2023-08-12T12:29:53;25.40;99.90
10662;DHT22;5379;51.034;7.006;2023-08-12T12:32:20;25.30;99.90
10662;DHT22;5379;51.034;7.006;2023-08-12T12:34:47;25.20;99.90
10662;DHT22;5379;51.034;7.006;2023-08-12T12:37:15;25.20;99.90
10662;DHT22;5379;51.034;7.006;2023-08-12T12:39:43;25.10;99.90
10662;DHT22;5379;51.034;7.006;2023-08-12T12:42:10;24.90;99.90
10662;DHT22;5379;51.034;7.006;2023-08-12T12:44:37;24.40;99.90
10662;DHT22;5379;51.034;7.006;2023-08-12T12:47:04;24.60;99.90
10662;DHT22;5379;51.034;7.006;2023-08-12T12:49:31;25.00;99.90
10662;DHT22;5379;51.034;7.006;2023-08-12T12:51:58;25.20;99.90
10662;DHT22;5379;51.034;7.006;2023-08-12T12:54:25;25.00;99.90
10662;DHT22;5379;51.034;7.006;2023-08-12T12:56:54;24.80;99.90
10662;DHT22;5379;51.034;7.006;2023-08-12T12:59:21;24.50;99.90
10662;DHT22;5379;51.034;7.006;2023-08-12T13:01:48;24.20;99.90
10662;DHT22;5379;51.034;7.006;2023-08-12T13:04:15;24.60;99.90
10662;DHT22;5379;51.034;7.006;2023-08-12T13:06:42;24.20;99.90
10662;DHT22;5379;51.034;7.006;2023-08-12T13:09:09;24.20;99.90
10662;DHT22;5379;51.034;7.006;2023-08-12T13:11:36;24.60;99.90
10662;DHT22;5379;51.034;7.006;2023-08-12T13:14:05;24.80;99.90
10662;DHT22;5379;51.034;7.006;2023-08-12T13:16:32;24.40;99.90
10662;DHT22;5379;51.034;7.006;2023-08-12T13:18:59;24.00;99.90
10662;DHT22;5379;51.034;7.006;2023-08-12T13:21:26;23.80;99.90
10662;DHT22;5379;51.034;7.006;2023-08-12T13:23:54;23.70;99.90
10662;DHT22;5379;51.034;7.006;2023-08-12T13:26:21;23.80;99.90
10662;DHT22;5379;51.034;7.006;2023-08-12T13:28:48;23.40;99.90
10662;DHT22;5379;51.034;7.006;2023-08-12T13:31:17;23.00;99.90
10662;DHT22;5379;51.034;7.006;2023-08-12T13:33:44;23.20;99.90
10662;DHT22;5379;51.034;7.006;2023-08-12T13:36:11;23.80;99.90
10662;DHT22;5379;51.034;7.006;2023-08-12T13:38:38;24.50;99.90
10662;DHT22;5379;51.034;7.006;2023-08-12T13:41:05;24.50;99.90
10662;DHT22;5379;51.034;7.006;2023-08-12T13:43:32;24.50;99.90
10662;DHT22;5379;51.034;7.006;2023-08-12T13:46:00;25.00;99.90
10662;DHT22;5379;51.034;7.006;2023-08-12T13:48:28;25.00;99.90
10662;DHT22;5379;51.034;7.006;2023-08-12T13:50:56;25.20;99.90
10662;DHT22;5379;51.034;7.006;2023-08-12T13:53:23;25.40;99.90
10662;DHT22;5379;51.034;7.006;2023-08-12T13:55:50;25.20;99.90
10662;DHT22;5379;51.034;7.006;2023-08-12T13:58:17;25.30;99.90
10662;DHT22;5379;51.034;7.006;2023-08-12T14:00:44;25.00;99.90
10662;DHT22;5379;51.034;7.006;2023-08-12T14:03:12;25.10;99.90
10662;DHT22;5379;51.034;7.006;2023-08-12T14:05:40;24.40;99.90
10662;DHT22;5379;51.034;7.006;2023-08-12T14:08:07;24.60;99.90
10662;DHT22;5379;51.034;7.006;2023-08-12T14:10:34;25.00;99.90
10662;DHT22;5379;51.034;7.006;2023-08-12T14:13:01;25.20;99.90
10662;DHT22;5379;51.034;7.006;2023-08-12T14:15:28;25.20;99.90
10662;DHT22;5379;51.034;7.006;2023-08-12T14:17:55;24.80;99.90
10662;DHT22;5379;51.034;7.006;2023-08-12T14:20:22;24.70;99.90
10662;DHT22;5379;51.034;7.006;2023-08-12T14:22:51;24.10;99.90
10662;DHT22;5379;51.034;7.006;2023-08-12T14:25:18;24.00;99.90
10662;DHT22;5379;51.034;7.006;2023-08-12T14:27:44;23.60;99.90
10662;DHT22;5379;51.034;7.006;2023-08-12T14:30:12;23.50;99.90
10662;DHT22;5379;51.034;7.006;2023-08-12T14:32:39;23.50;99.90
10662;DHT22;5379;51.034;7.006;2023-08-12T14:35:07;23.80;99.90
10662;DHT22;5379;51.034;7.006;2023-08-12T14:37:34;23.00;99.90
10662;DHT22;5379;51.034;7.006;2023-08-12T14:40:04;22.80;99.90
10662;DHT22;5379;51.034;7.006;2023-08-12T14:42:31;22.60;99.90
10662;DHT22;5379;51.034;7.006;2023-08-12T14:44:58;22.50;99.90
10662;DHT22;5379;51.034;7.006;2023-08-12T14:47:25;22.60;99.90
10662;DHT22;5379;51.034;7.006;2023-08-12T14:49:52;22.90;99.90
10662;DHT22;5379;51.034;7.006;2023-08-12T14:52:20;23.10;99.90
10662;DHT22;5379;51.034;7.006;2023-08-12T14:54:47;23.40;99.90
10662;DHT22;5379;51.034;7.006;2023-08-12T14:57:16;23.60;99.90
10662;DHT22;5379;51.034;7.006;2023-08-12T14:59:43;23.70;99.90
10662;DHT22;5379;51.034;7.006;2023-08-12T15:02:12;23.80;99.90
10662;DHT22;5379;51.034;7.006;2023-08-12T15:04:39;23.60;99.90
10662;DHT22;5379;51.034;7.006;2023-08-12T15:07:06;23.30;99.90
10662;DHT22;5379;51.034;7.006;2023-08-12T15:09:33;23.40;99.90
10662;DHT22;5379;51.034;7.006;2023-08-12T15:12:00;24.00;99.90
10662;DHT22;5379;51.034;7.006;2023-08-12T15:14:28;23.90;99.90
10662;DHT22;5379;51.034;7.006;2023-08-12T15:16:55;23.80;99.90
10662;DHT22;5379;51.034;7.006;2023-08-12T15:19:22;23.60;99.90
10662;DHT22;5379;51.034;7.006;2023-08-12T15:21:49;23.90;99.90
10662;DHT22;5379;51.034;7.006;2023-08-12T15:24:16;24.40;99.90
10662;DHT22;5379;51.034;7.006;2023-08-12T15:26:43;24.70;99.90
10662;DHT22;5379;51.034;7.006;2023-08-12T15:29:10;24.20;99.90
10662;DHT22;5379;51.034;7.006;2023-08-12T15:31:39;23.90;99.90
10662;DHT22;5379;51.034;7.006;2023-08-12T15:34:06;24.20;99.90
10662;DHT22;5379;51.034;7.006;2023-08-12T15:36:33;23.70;99.90
10662;DHT22;5379;51.034;7.006;2023-08-12T15:39:01;23.50;99.90
10662;DHT22;5379;51.034;7.006;2023-08-12T15:41:28;23.20;99.90
10662;DHT22;5379;51.034;7.006;2023-08-12T15:43:55;23.60;99.90
10662;DHT22;5379;51.034;7.006;2023-08-12T15:46:22;24.00;99.90
10662;DHT22;5379;51.034;7.006;2023-08-12T15:48:50;24.20;99.90
10662;DHT22;5379;51.034;7.006;2023-08-12T15:51:17;24.10;99.90
10662;DHT22;5379;51.034;7.006;2023-08-12T15:53:44;23.90;99.90
10662;DHT22;5379;51.034;7.006;2023-08-12T15:56:11;23.70;99.90
10662;DHT22;5379;51.034;7.006;2023-08-12T15:58:38;23.90;99.90
10662;DHT22;5379;51.034;7.006;2023-08-12T16:01:05;24.10;99.90
10662;DHT22;5379;51.034;7.006;2023-08-12T16:03:33;24.30;99.90
10662;DHT22;5379;51.034;7.006;2023-08-12T16:06:02;24.30;99.90
10662;DHT22;5379;51.034;7.006;2023-08-12T16:08:29;24.20;99.90
10662;DHT22;5379;51.034;7.006;2023-08-12T16:10:56;24.00;99.90
10662;DHT22;5379;51.034;7.006;2023-08-12T16:13:23;24.10;99.90
10662;DHT22;5379;51.034;7.006;2023-08-12T16:15:50;24.10;99.90
10662;DHT22;5379;51.034;7.006;2023-08-12T16:18:17;24.10;99.90
10662;DHT22;5379;51.034;7.006;2023-08-12T16:20:44;24.00;99.90
10662;DHT22;5379;51.034;7.006;2023-08-12T16:23:12;24.00;99.90
10662;DHT22;5379;51.034;7.006;2023-08-12T16:25:39;24.00;99.90
10662;DHT22;5379;51.034;7.006;2023-08-12T16:28:06;23.90;99.90
10662;DHT22;5379;51.034;7.006;2023-08-12T16:30:33;24.00;99.90
10662;DHT22;5379;51.034;7.006;2023-08-12T16:33:00;24.10;99.90
10662;DHT22;5379;51.034;7.006;2023-08-12T16:35:28;24.30;99.90
10662;DHT22;5379;51.034;7.006;2023-08-12T16:37:55;23.70;99.90
10662;DHT22;5379;51.034;7.006;2023-08-12T16:40:23;23.10;99.90
10662;DHT22;5379;51.034;7.006;2023-08-12T16:42:53;23.00;99.90
10662;DHT22;5379;51.034;7.006;2023-08-12T16:45:20;23.20;99.90
10662;DHT22;5379;51.034;7.006;2023-08-12T16:47:46;23.30;99.90
10662;DHT22;5379;51.034;7.006;2023-08-12T16:50:13;23.50;99.90
10662;DHT22;5379;51.034;7.006;2023-08-12T16:52:40;23.60;99.90
10662;DHT22;5379;51.034;7.006;2023-08-12T16:55:08;23.10;99.90
10662;DHT22;5379;51.034;7.006;2023-08-12T17:00:05;23.00;99.90
10662;DHT22;5379;51.034;7.006;2023-08-12T17:02:32;23.00;99.90
10662;DHT22;5379;51.034;7.006;2023-08-12T17:04:59;23.20;99.90
10662;DHT22;5379;51.034;7.006;2023-08-12T17:07:26;23.80;99.90
10662;DHT22;5379;51.034;7.006;2023-08-12T17:09:54;24.10;99.90
10662;DHT22;5379;51.034;7.006;2023-08-12T17:12:21;24.30;99.90
10662;DHT22;5379;51.034;7.006;2023-08-12T17:14:50;24.50;99.90
10662;DHT22;5379;51.034;7.006;2023-08-12T17:17:17;24.40;99.90
10662;DHT22;5379;51.034;7.006;2023-08-12T17:19:44;24.80;99.90
10662;DHT22;5379;51.034;7.006;2023-08-12T17:22:11;24.30;99.90
10662;DHT22;5379;51.034;7.006;2023-08-12T17:24:38;24.10;99.90
10662;DHT22;5379;51.034;7.006;2023-08-12T17:27:05;23.90;99.90
10662;DHT22;5379;51.034;7.006;2023-08-12T17:29:32;24.20;99.90
10662;DHT22;5379;51.034;7.006;2023-08-12T17:32:00;24.50;99.90
10662;DHT22;5379;51.034;7.006;2023-08-12T17:34:27;24.20;99.90
10662;DHT22;5379;51.034;7.006;2023-08-12T17:36:54;23.90;99.90
10662;DHT22;5379;51.034;7.006;2023-08-12T17:39:21;23.50;99.90
10662;DHT22;5379;51.034;7.006;2023-08-12T17:41:48;23.80;99.90
10662;DHT22;5379;51.034;7.006;2023-08-12T17:44:15;23.80;99.90
10662;DHT22;5379;51.034;7.006;2023-08-12T17:46:42;24.00;99.90
10662;DHT22;5379;51.034;7.006;2023-08-12T17:49:10;24.40;99.90
10662;DHT22;5379;51.034;7.006;2023-08-12T17:51:37;23.90;99.90
10662;DHT22;5379;51.034;7.006;2023-08-12T17:54:04;23.80;99.90
10662;DHT22;5379;51.034;7.006;2023-08-12T17:56:31;24.40;99.90
10662;DHT22;5379;51.034;7.006;2023-08-12T17:58:58;24.70;99.90
10662;DHT22;5379;51.034;7.006;2023-08-12T18:01:26;25.20;99.90
10662;DHT22;5379;51.034;7.006;2023-08-12T18:03:52;25.60;99.90
10662;DHT22;5379;51.034;7.006;2023-08-12T18:06:21;25.60;99.90
10662;DHT22;5379;51.034;7.006;2023-08-12T18:08:48;25.20;99.90
10662;DHT22;5379;51.034;7.006;2023-08-12T18:11:15;25.00;99.90
10662;DHT22;5379;51.034;7.006;2023-08-12T18:13:42;24.90;99.90
10662;DHT22;5379;51.034;7.006;2023-08-12T18:16:09;24.80;99.90
10662;DHT22;5379;51.034;7.006;2023-08-12T18:18:36;25.10;99.90
10662;DHT22;5379;51.034;7.006;2023-08-12T18:21:03;25.50;99.90
10662;DHT22;5379;51.034;7.006;2023-08-12T18:23:31;25.70;99.90
10662;DHT22;5379;51.034;7.006;2023-08-12T18:25:58;25.90;99.90
10662;DHT22;5379;51.034;7.006;2023-08-12T18:28:25;26.10;99.90
10662;DHT22;5379;51.034;7.006;2023-08-12T18:30:52;26.40;99.90
10662;DHT22;5379;51.034;7.006;2023-08-12T18:33:19;26.70;99.90
10662;DHT22;5379;51.034;7.006;2023-08-12T18:35:46;26.70;99.90
10662;DHT22;5379;51.034;7.006;2023-08-12T18:38:13;26.80;99.90
10662;DHT22;5379;51.034;7.006;2023-08-12T18:40:41;27.10;99.90
10662;DHT22;5379;51.034;7.006;2023-08-12T18:43:08;27.00;99.90
10662;DHT22;5379;51.034;7.006;2023-08-12T18:45:35;27.10;99.90
10662;DHT22;5379;51.034;7.006;2023-08-12T18:48:03;27.20;99.90
10662;DHT22;5379;51.034;7.006;2023-08-12T18:50:31;27.30;99.90
10662;DHT22;5379;51.034;7.006;2023-08-12T18:52:58;27.30;99.90
10662;DHT22;5379;51.034;7.006;2023-08-12T18:55:25;27.30;99.90
10662;DHT22;5379;51.034;7.006;2023-08-12T18:57:54;27.30;99.90
10662;DHT22;5379;51.034;7.006;2023-08-12T19:00:21;27.30;99.90
10662;DHT22;5379;51.034;7.006;2023-08-12T19:02:49;27.20;99.90
10662;DHT22;5379;51.034;7.006;2023-08-12T19:05:16;27.10;99.90
10662;DHT22;5379;51.034;7.006;2023-08-12T19:07:43;27.20;99.90
10662;DHT22;5379;51.034;7.006;2023-08-12T19:10:10;27.20;99.90
10662;DHT22;5379;51.034;7.006;2023-08-12T19:12:37;27.20;99.90
10662;DHT22;5379;51.034;7.006;2023-08-12T19:15:06;27.30;99.90
10662;DHT22;5379;51.034;7.006;2023-08-12T19:17:33;27.10;99.90
10662;DHT22;5379;51.034;7.006;2023-08-12T19:20:00;27.00;99.90
10662;DHT22;5379;51.034;7.006;2023-08-12T19:22:29;27.10;99.90
10662;DHT22;5379;51.034;7.006;2023-08-12T19:24:55;27.10;99.90
10662;DHT22;5379;51.034;7.006;2023-08-12T19:27:22;27.20;99.90
10662;DHT22;5379;51.034;7.006;2023-08-12T19:29:50;27.10;99.90
10662;DHT22;5379;51.034;7.006;2023-08-12T19:32:18;27.00;99.90
10662;DHT22;5379;51.034;7.006;2023-08-12T19:34:46;27.00;99.90
10662;DHT22;5379;51.034;7.006;2023-08-12T19:37:13;26.90;99.90
10662;DHT22;5379;51.034;7.006;2023-08-12T19:39:40;27.00;99.90
10662;DHT22;5379;51.034;7.006;2023-08-12T19:42:06;26.90;99.90
10662;DHT22;5379;51.034;7.006;2023-08-12T19:44:34;27.00;99.90
10662;DHT22;5379;51.034;7.006;2023-08-12T19:47:01;26.90;99.90
10662;DHT22;5379;51.034;7.006;2023-08-12T19:49:29;26.80;99.90
10662;DHT22;5379;51.034;7.006;2023-08-12T19:51:56;26.80;99.90
10662;DHT22;5379;51.034;7.006;2023-08-12T19:54:23;26.90;99.90
10662;DHT22;5379;51.034;7.006;2023-08-12T19:56:51;26.70;99.90
10662;DHT22;5379;51.034;7.006;2023-08-12T19:59:18;26.50;99.90
10662;DHT22;5379;51.034;7.006;2023-08-12T20:01:45;26.40;99.90
10662;DHT22;5379;51.034;7.006;2023-08-12T20:04:12;26.30;99.90
10662;DHT22;5379;51.034;7.006;2023-08-12T20:06:41;26.50;99.90
10662;DHT22;5379;51.034;7.006;2023-08-12T20:09:07;26.50;99.90
10662;DHT22;5379;51.034;7.006;2023-08-12T20:11:35;26.40;99.90
10662;DHT22;5379;51.034;7.006;2023-08-12T20:14:02;26.20;99.90
10662;DHT22;5379;51.034;7.006;2023-08-12T20:16:29;25.50;99.90
10662;DHT22;5379;51.034;7.006;2023-08-12T20:18:56;25.50;99.90
10662;DHT22;5379;51.034;7.006;2023-08-12T20:21:23;25.20;99.90
10662;DHT22;5379;51.034;7.006;2023-08-12T20:23:51;25.50;99.90
10662;DHT22;5379;51.034;7.006;2023-08-12T20:26:18;25.40;99.90